Aviation Digital Data Service (ADDS)

Output produced by METARs form (2053 UTC 29 May 2017)
found at http://www.aviationweather.gov/adds/metars/
 
KEAR 291720Z 2918/3018 33012G17KT P6SM FEW060 FEW250 
     FM300000 01010KT P6SM FEW250 
     FM300400 VRB03KT P6SM FEW090 
     FM301400 33007KT P6SM FEW150 AMD LTD TO CLD VIS AND WIND
       
KEAT 291725Z 2918/3018 12005KT P6SM SKC 
     FM300700 30005KT P6SM SCT250
       
KEAU 291857Z 2918/3018 27014KT P6SM VCSH OVC045 
     FM300100 29010KT P6SM BKN060 
     FM301200 27010KT P6SM OVC030 
     FM301500 28013KT P6SM OVC025
       
KECG 291739Z 2918/3018 28006KT P6SM SCT030 
     FM292100 08005KT P6SM SCT040 
     FM292300 10005KT P6SM BKN090 
     FM300300 VRB03KT P6SM VCSH BKN100 
     FM300600 00000KT P6SM OVC030
       
KEED 291721Z 2918/3018 02006KT P6SM SKC 
     FM292100 19008KT P6SM SKC 
     FM300300 24007KT P6SM FEW250 
     FM301700 17012KT P6SM SCT250
       
KEET 291958Z 2920/3018 23007KT P6SM VCSH SCT015 BKN050 
     FM300500 20002KT P6SM OVC080 
     FM301000 23002KT P6SM SHRA VCTS OVC020CB
       
TAF KEFD 292000Z 2920/3102 04006KT 8000 -SHRA BKN020 QNH2995INS 
     BECMG 3009/3010 06006KT 9999 NSW BKN010 QNH2998INS 
     BECMG 3015/3016 12009KT 9999 BKN030 QNH2997INS TX28/2921Z TN22/3012Z
       
KEGE 291736Z 2918/3018 00000KT P6SM SCT200 
     FM292000 25006KT P6SM VCSH SCT150 
     FM292200 26010G18KT P6SM VCSH SCT150 
     FM300200 07005KT P6SM SCT200 
     FM300400 00000KT P6SM FEW250 
     FM301500 VRB03KT P6SM SCT150
       
KEKN 291720Z 2918/3018 28006KT P6SM SCT040 
     FM300100 00000KT P6SM FEW050 FEW200 
     FM300800 00000KT 4SM BR FEW200 
     FM300900 00000KT 1SM BR SCT001 SCT200 
     FM301000 00000KT 1/4SM FG VV001 
     FM301230 VRB03KT P6SM SCT200 
     FM301600 25007KT P6SM BKN050
       
KZZV 291720Z 2918/3018 24008KT P6SM SCT050
       
KELP 291732Z 2918/3018 11012KT P6SM FEW060 
     FM292000 12010G18KT P6SM VCTS SCT050CB BKN080 
     FM300300 12010KT 6SM -TSRA BKN050CB BKN080 
     FM301200 VRB06KT P6SM BKN250
       
KELY 291720Z 2918/3018 03007KT P6SM SCT120 
     FM300500 17008KT P6SM SKC
       
KEKO 291720Z 2918/3018 07005KT P6SM SKC
       
KENV 291720Z 2918/3018 14008KT P6SM SKC 
     FM300200 VRB04KT P6SM SKC 
     FM301400 12008KT P6SM FEW100
       
KENW 292046Z 2921/3018 26016G28KT P6SM FEW060 
     FM292200 27014G24KT P6SM VCSH BKN060 
     FM300100 26009KT P6SM VCSH BKN070 
     FM300300 26007KT P6SM SCT110 
     FM301400 26013G22KT P6SM SCT100 
     FM301600 26014G23KT P6SM BKN050
       
KERI 291739Z 2918/3018 26013KT P6SM FEW050 SCT250 
     FM300200 20009KT P6SM BKN200 
     FM300800 21009KT P6SM VCSH SCT050 BKN200 
     FM301400 24011KT P6SM SCT100
       
KEUG 291724Z 2918/3018 VRB03KT 4SM BR OVC007 
     FM291900 35004KT P6SM OVC012 
     FM292100 30007KT P6SM FEW040 
     FM300000 26010KT P6SM SKC 
     FM300600 23005KT P6SM OVC010
       
KEUL 291720Z 2918/3018 VRB05KT P6SM SKC
       
KEVV 291720Z 2918/3018 24007KT P6SM SCT050 SCT250 
     FM300000 23005KT P6SM VCSH SCT050 SCT200 
     FM300600 VRB03KT P6SM BKN200
       
KEVW 291720Z 2918/3018 04008KT P6SM FEW080 
     FM300300 09006KT P6SM SKC
       
KEWN 291727Z 2918/3018 29008KT P6SM SKC 
     FM300200 19005KT P6SM VCTS SCT050CB 
     FM301000 21005KT P6SM SCT025 BKN060 
     FM301200 25007KT P6SM BKN120
       
KEWR 291934Z 2920/3024 08006KT P6SM BKN015 OVC025 
     TEMPO 2920/2924 SCT015 OVC025 
     FM300400 11004KT 5SM -DZ BR BKN009 OVC012 
     FM300700 13005KT 5SM -DZ BR OVC007 
     FM301400 13006KT P6SM OVC015 
     FM301800 14008KT P6SM BKN020
       
KEYW 291720Z 2918/3018 11007KT P6SM FEW025 
     FM300300 10010KT P6SM FEW027